Portada
METAR-TAF:

METAR-TAF

Aeroports :

Aeroport Internacional Diori Hamani

Niamey, Níger

latitud: 13-29N, longitud: 002-10E, altitud: 223 m

Observació

L'informe es va fer fa 29 minuts, a les 21:00 UTC
Vent 3 kt del Nord/Nord-Est
Temperatura 28°C
Humitat 16%
Pressió 1011 hPa
Visibilitat 10 km o més
sense núvols per sota de 1500 mi sense presència de cumulonimbus.

METAR: DRRN 142100Z 03003KT CAVOK 28/M00 Q1011 NOSIG

Hora: 22:29 (21:29 UTC)

Pronòstic

L'informe es va fer fa 4 hores i 29 minuts, a les 17:00 UTC
Pronòstic vàlid del 14 a les 18 UTC al 15 a les 24 UTC
Vent 8 kt del Nord
Visibilitat: 8000 m
Temporalment
l' 14 a les 18 UTC al 14 a les 20 UTC
Visibilitat: 4000 m
Pols estès
Temporalment
l' 15 a les 06 UTC al 15 a les 08 UTC
Visibilitat: 4000 m
Pols estès

TAF: DRRN 141700Z 1418/1524 01008KT 8000 NSC TEMPO 1418/1420 4000 DU TEMPO 1506/1508 4000 DU

Observacions i pronòstics meteorològics de més de 4000 aeroports (METAR i TAF).

Les estacions disponibles són els punts grocs i vermells al mapa.

Posi el ratolí al punt desitjat per veure el nom de l'estació.

Feu clic per veure les observacions i els pronòstics meteorològics.

Per canviar el mapa: feu clic els botons verds amb una creu de color negre per apropar; al botó verd amb un guió per allunyar la imatge; o en les fletxes verdes per a mapes adjacents.


METAR-TAF: